sensor_id;sensor_type;location;lat;lon;timestamp;pressure;altitude;pressure_sealevel;temperature;humidity
15678;BME280;7939;50.814;6.368;2022-09-09T00:01:02;99211.41;;;22.92;53.85
15678;BME280;7939;50.814;6.368;2022-09-09T00:03:35;99200.25;;;22.90;53.74
15678;BME280;7939;50.814;6.368;2022-09-09T00:06:09;99205.47;;;22.90;53.92
15678;BME280;7939;50.814;6.368;2022-09-09T00:08:45;99196.03;;;22.87;53.90
15678;BME280;7939;50.814;6.368;2022-09-09T00:11:21;99201.25;;;22.87;53.62
15678;BME280;7939;50.814;6.368;2022-09-09T00:13:52;99191.00;;;22.84;53.93
15678;BME280;7939;50.814;6.368;2022-09-09T00:16:22;99188.41;;;22.84;53.52
15678;BME280;7939;50.814;6.368;2022-09-09T00:18:56;99194.53;;;22.83;54.01
15678;BME280;7939;50.814;6.368;2022-09-09T00:21:31;99200.69;;;22.82;53.53
15678;BME280;7939;50.814;6.368;2022-09-09T00:24:00;99187.72;;;22.81;53.81
15678;BME280;7939;50.814;6.368;2022-09-09T00:26:35;99190.44;;;22.79;53.60
15678;BME280;7939;50.814;6.368;2022-09-09T00:29:10;99189.69;;;22.77;53.13
15678;BME280;7939;50.814;6.368;2022-09-09T00:31:41;99190.63;;;22.76;53.92
15678;BME280;7939;50.814;6.368;2022-09-09T00:34:11;99184.56;;;22.76;53.88
15678;BME280;7939;50.814;6.368;2022-09-09T00:36:39;99186.31;;;22.75;53.68
15678;BME280;7939;50.814;6.368;2022-09-09T00:39:09;99182.03;;;22.74;53.69
15678;BME280;7939;50.814;6.368;2022-09-09T00:41:50;99179.63;;;22.71;53.87
15678;BME280;7939;50.814;6.368;2022-09-09T00:44:32;99169.22;;;22.71;53.85
15678;BME280;7939;50.814;6.368;2022-09-09T00:47:21;99181.41;;;22.71;53.77
15678;BME280;7939;50.814;6.368;2022-09-09T00:50:00;99177.13;;;22.70;53.79
15678;BME280;7939;50.814;6.368;2022-09-09T00:52:35;99178.97;;;22.68;53.78
15678;BME280;7939;50.814;6.368;2022-09-09T00:55:12;99170.31;;;22.67;53.92
15678;BME280;7939;50.814;6.368;2022-09-09T00:57:46;99173.03;;;22.66;53.90
15678;BME280;7939;50.814;6.368;2022-09-09T01:00:21;99169.69;;;22.64;53.97
15678;BME280;7939;50.814;6.368;2022-09-09T01:03:07;99178.31;;;22.64;54.00
15678;BME280;7939;50.814;6.368;2022-09-09T01:05:43;99176.66;;;22.63;53.97
15678;BME280;7939;50.814;6.368;2022-09-09T01:08:20;99172.34;;;22.62;53.95
15678;BME280;7939;50.814;6.368;2022-09-09T01:10:53;99169.84;;;22.60;53.95
15678;BME280;7939;50.814;6.368;2022-09-09T01:13:25;99179.53;;;22.58;53.94
15678;BME280;7939;50.814;6.368;2022-09-09T01:15:53;99177.84;;;22.57;53.90
15678;BME280;7939;50.814;6.368;2022-09-09T01:18:22;99173.53;;;22.56;54.12
15678;BME280;7939;50.814;6.368;2022-09-09T01:20:57;99169.28;;;22.55;53.99
15678;BME280;7939;50.814;6.368;2022-09-09T01:23:38;99177.09;;;22.55;54.16
15678;BME280;7939;50.814;6.368;2022-09-09T01:26:18;99174.69;;;22.52;54.20
15678;BME280;7939;50.814;6.368;2022-09-09T01:28:47;99174.69;;;22.52;54.26
15678;BME280;7939;50.814;6.368;2022-09-09T01:31:17;99171.34;;;22.50;54.11
15678;BME280;7939;50.814;6.368;2022-09-09T01:33:45;99174.78;;;22.51;54.18
15678;BME280;7939;50.814;6.368;2022-09-09T01:36:19;99177.44;;;22.49;54.06
15678;BME280;7939;50.814;6.368;2022-09-09T01:38:47;99178.38;;;22.48;54.16
15678;BME280;7939;50.814;6.368;2022-09-09T01:41:15;99178.38;;;22.48;53.96
15678;BME280;7939;50.814;6.368;2022-09-09T01:43:42;99171.50;;;22.47;54.08
15678;BME280;7939;50.814;6.368;2022-09-09T01:46:10;99177.63;;;22.46;54.38
15678;BME280;7939;50.814;6.368;2022-09-09T01:48:39;99175.03;;;22.46;54.06
15678;BME280;7939;50.814;6.368;2022-09-09T01:51:07;99175.13;;;22.45;54.39
15678;BME280;7939;50.814;6.368;2022-09-09T01:53:34;99180.34;;;22.45;54.37
15678;BME280;7939;50.814;6.368;2022-09-09T01:56:07;99176.91;;;22.44;54.61
15678;BME280;7939;50.814;6.368;2022-09-09T01:58:52;99173.44;;;22.44;54.52
15678;BME280;7939;50.814;6.368;2022-09-09T02:01:30;99173.53;;;22.42;54.39
15678;BME280;7939;50.814;6.368;2022-09-09T02:04:03;99175.28;;;22.42;54.55
15678;BME280;7939;50.814;6.368;2022-09-09T02:06:36;99168.41;;;22.41;54.49
15678;BME280;7939;50.814;6.368;2022-09-09T02:09:05;99165.91;;;22.39;54.67
15678;BME280;7939;50.814;6.368;2022-09-09T02:11:33;99169.34;;;22.40;54.37
15678;BME280;7939;50.814;6.368;2022-09-09T02:14:05;99173.72;;;22.39;54.55
15678;BME280;7939;50.814;6.368;2022-09-09T02:16:37;99166.06;;;22.36;54.56
15678;BME280;7939;50.814;6.368;2022-09-09T02:19:09;99173.88;;;22.36;54.72
15678;BME280;7939;50.814;6.368;2022-09-09T02:21:39;99177.31;;;22.37;54.56
15678;BME280;7939;50.814;6.368;2022-09-09T02:24:09;99175.66;;;22.35;54.67
15678;BME280;7939;50.814;6.368;2022-09-09T02:26:40;99172.22;;;22.35;54.73
15678;BME280;7939;50.814;6.368;2022-09-09T02:29:14;99164.50;;;22.33;54.76
15678;BME280;7939;50.814;6.368;2022-09-09T02:31:44;99161.91;;;22.33;54.73
15678;BME280;7939;50.814;6.368;2022-09-09T02:34:13;99160.97;;;22.34;54.60
15678;BME280;7939;50.814;6.368;2022-09-09T02:36:43;99167.19;;;22.32;54.70
15678;BME280;7939;50.814;6.368;2022-09-09T02:39:11;99162.00;;;22.32;54.93
15678;BME280;7939;50.814;6.368;2022-09-09T02:41:40;99159.38;;;22.32;54.81
15678;BME280;7939;50.814;6.368;2022-09-09T02:44:11;99158.44;;;22.33;55.02
15678;BME280;7939;50.814;6.368;2022-09-09T02:46:56;99153.34;;;22.31;54.69
15678;BME280;7939;50.814;6.368;2022-09-09T02:49:37;99157.69;;;22.31;54.63
15678;BME280;7939;50.814;6.368;2022-09-09T02:52:08;99152.56;;;22.29;55.16
15678;BME280;7939;50.814;6.368;2022-09-09T02:54:38;99163.00;;;22.29;55.25
15678;BME280;7939;50.814;6.368;2022-09-09T02:57:09;99156.13;;;22.28;54.93
15678;BME280;7939;50.814;6.368;2022-09-09T02:59:38;99156.13;;;22.28;55.18
15678;BME280;7939;50.814;6.368;2022-09-09T03:02:06;99156.13;;;22.28;55.01
15678;BME280;7939;50.814;6.368;2022-09-09T03:04:32;99160.47;;;22.28;54.97
15678;BME280;7939;50.814;6.368;2022-09-09T03:06:59;99154.44;;;22.27;54.96
15678;BME280;7939;50.814;6.368;2022-09-09T03:09:26;99162.34;;;22.26;54.95
15678;BME280;7939;50.814;6.368;2022-09-09T03:11:52;99161.50;;;22.25;54.95
15678;BME280;7939;50.814;6.368;2022-09-09T03:14:20;99155.44;;;22.25;54.83
15678;BME280;7939;50.814;6.368;2022-09-09T03:16:51;99161.56;;;22.24;55.02
15678;BME280;7939;50.814;6.368;2022-09-09T03:19:18;99158.22;;;22.22;54.97
15678;BME280;7939;50.814;6.368;2022-09-09T03:21:44;99165.19;;;22.21;55.12
15678;BME280;7939;50.814;6.368;2022-09-09T03:24:11;99160.00;;;22.21;55.12
15678;BME280;7939;50.814;6.368;2022-09-09T03:26:37;99159.16;;;22.21;55.18
15678;BME280;7939;50.814;6.368;2022-09-09T03:29:06;99162.59;;;22.21;54.86
15678;BME280;7939;50.814;6.368;2022-09-09T03:31:33;99160.94;;;22.20;55.07
15678;BME280;7939;50.814;6.368;2022-09-09T03:34:02;99159.25;;;22.19;54.70
15678;BME280;7939;50.814;6.368;2022-09-09T03:36:29;99154.06;;;22.19;55.01
15678;BME280;7939;50.814;6.368;2022-09-09T03:38:56;99155.78;;;22.19;55.10
15678;BME280;7939;50.814;6.368;2022-09-09T03:41:23;99152.34;;;22.18;54.78
15678;BME280;7939;50.814;6.368;2022-09-09T03:43:50;99157.56;;;22.18;55.19
15678;BME280;7939;50.814;6.368;2022-09-09T03:46:17;99163.69;;;22.17;55.00
15678;BME280;7939;50.814;6.368;2022-09-09T03:48:43;99167.13;;;22.18;55.00
15678;BME280;7939;50.814;6.368;2022-09-09T03:51:12;99169.72;;;22.18;55.44
15678;BME280;7939;50.814;6.368;2022-09-09T03:53:39;99163.78;;;22.16;55.05
15678;BME280;7939;50.814;6.368;2022-09-09T03:56:06;99166.38;;;22.16;55.06
15678;BME280;7939;50.814;6.368;2022-09-09T03:58:33;99168.16;;;22.15;55.04
15678;BME280;7939;50.814;6.368;2022-09-09T04:01:02;99159.50;;;22.15;55.19
15678;BME280;7939;50.814;6.368;2022-09-09T04:03:29;99160.44;;;22.14;54.87
15678;BME280;7939;50.814;6.368;2022-09-09T04:05:58;99159.63;;;22.13;55.18
15678;BME280;7939;50.814;6.368;2022-09-09T04:08:26;99161.38;;;22.13;54.99
15678;BME280;7939;50.814;6.368;2022-09-09T04:10:54;99157.06;;;22.12;55.04
15678;BME280;7939;50.814;6.368;2022-09-09T04:13:22;99159.69;;;22.12;55.10
15678;BME280;7939;50.814;6.368;2022-09-09T04:15:51;99155.41;;;22.11;55.14
15678;BME280;7939;50.814;6.368;2022-09-09T04:18:18;99160.59;;;22.11;55.12
15678;BME280;7939;50.814;6.368;2022-09-09T04:20:46;99155.41;;;22.11;55.10
15678;BME280;7939;50.814;6.368;2022-09-09T04:23:12;99148.53;;;22.10;55.24
15678;BME280;7939;50.814;6.368;2022-09-09T04:25:44;99152.03;;;22.08;55.31
15678;BME280;7939;50.814;6.368;2022-09-09T04:28:11;99146.81;;;22.08;54.70
15678;BME280;7939;50.814;6.368;2022-09-09T04:30:38;99154.97;;;22.02;54.97
15678;BME280;7939;50.814;6.368;2022-09-09T04:33:05;99156.56;;;22.05;55.39
15678;BME280;7939;50.814;6.368;2022-09-09T04:35:31;99153.94;;;22.05;55.72
15678;BME280;7939;50.814;6.368;2022-09-09T04:37:58;99162.38;;;22.10;56.17
15678;BME280;7939;50.814;6.368;2022-09-09T04:40:25;99157.84;;;22.14;55.98
15678;BME280;7939;50.814;6.368;2022-09-09T04:42:53;99150.41;;;22.22;55.69
15678;BME280;7939;50.814;6.368;2022-09-09T04:45:19;99160.47;;;22.28;55.36
15678;BME280;7939;50.814;6.368;2022-09-09T04:47:46;99160.13;;;22.34;55.37
15678;BME280;7939;50.814;6.368;2022-09-09T04:50:12;99158.09;;;22.39;55.43
15678;BME280;7939;50.814;6.368;2022-09-09T04:52:39;99156.13;;;22.43;54.59
15678;BME280;7939;50.814;6.368;2022-09-09T04:55:07;99157.75;;;22.45;54.53
15678;BME280;7939;50.814;6.368;2022-09-09T04:57:34;99167.97;;;22.48;54.42
15678;BME280;7939;50.814;6.368;2022-09-09T05:00:03;99167.03;;;22.49;54.83
15678;BME280;7939;50.814;6.368;2022-09-09T05:02:30;99165.19;;;22.51;54.67
15678;BME280;7939;50.814;6.368;2022-09-09T05:04:57;99170.09;;;22.56;54.13
15678;BME280;7939;50.814;6.368;2022-09-09T05:07:26;99170.88;;;22.58;53.86
15678;BME280;7939;50.814;6.368;2022-09-09T05:09:54;99163.13;;;22.56;54.30
15678;BME280;7939;50.814;6.368;2022-09-09T05:12:20;99171.63;;;22.60;53.98
15678;BME280;7939;50.814;6.368;2022-09-09T05:14:49;99170.69;;;22.61;53.67
15678;BME280;7939;50.814;6.368;2022-09-09T05:17:17;99170.59;;;22.62;53.95
15678;BME280;7939;50.814;6.368;2022-09-09T05:19:44;99168.84;;;22.63;54.04
15678;BME280;7939;50.814;6.368;2022-09-09T05:22:11;99170.50;;;22.64;54.00
15678;BME280;7939;50.814;6.368;2022-09-09T05:24:38;99167.81;;;22.66;54.04
15678;BME280;7939;50.814;6.368;2022-09-09T05:27:04;99168.66;;;22.66;54.11
15678;BME280;7939;50.814;6.368;2022-09-09T05:29:31;99170.41;;;22.66;53.54
15678;BME280;7939;50.814;6.368;2022-09-09T05:31:58;99166.03;;;22.66;53.77
15678;BME280;7939;50.814;6.368;2022-09-09T05:34:26;99166.03;;;22.66;53.74
15678;BME280;7939;50.814;6.368;2022-09-09T05:36:53;99167.63;;;22.69;53.60
15678;BME280;7939;50.814;6.368;2022-09-09T05:39:20;99171.09;;;22.69;53.42
15678;BME280;7939;50.814;6.368;2022-09-09T05:41:46;99166.72;;;22.70;53.60
15678;BME280;7939;50.814;6.368;2022-09-09T05:44:13;99175.34;;;22.70;53.91
15678;BME280;7939;50.814;6.368;2022-09-09T05:46:40;99171.09;;;22.69;53.52
15678;BME280;7939;50.814;6.368;2022-09-09T05:49:06;99172.75;;;22.70;53.72
15678;BME280;7939;50.814;6.368;2022-09-09T05:51:35;99170.88;;;22.72;53.06
15678;BME280;7939;50.814;6.368;2022-09-09T05:54:01;99182.25;;;22.71;53.20
15678;BME280;7939;50.814;6.368;2022-09-09T05:56:28;99180.47;;;22.72;53.25
15678;BME280;7939;50.814;6.368;2022-09-09T05:58:56;99180.47;;;22.72;53.65
15678;BME280;7939;50.814;6.368;2022-09-09T06:01:26;99176.09;;;22.72;53.52
15678;BME280;7939;50.814;6.368;2022-09-09T06:03:54;99175.34;;;22.70;53.66
15678;BME280;7939;50.814;6.368;2022-09-09T06:06:22;99166.59;;;22.71;53.21
15678;BME280;7939;50.814;6.368;2022-09-09T06:08:52;99169.13;;;22.73;53.37
15678;BME280;7939;50.814;6.368;2022-09-09T06:11:21;99164.75;;;22.73;53.26
15678;BME280;7939;50.814;6.368;2022-09-09T06:13:48;99169.94;;;22.73;53.23
15678;BME280;7939;50.814;6.368;2022-09-09T06:16:18;99162.13;;;22.73;53.09
15678;BME280;7939;50.814;6.368;2022-09-09T06:18:45;99156.81;;;22.75;52.53
15678;BME280;7939;50.814;6.368;2022-09-09T06:21:15;99167.34;;;22.73;52.78
15678;BME280;7939;50.814;6.368;2022-09-09T06:23:43;99157.75;;;22.74;53.12
15678;BME280;7939;50.814;6.368;2022-09-09T06:26:13;99157.66;;;22.75;53.06
15678;BME280;7939;50.814;6.368;2022-09-09T06:28:40;99158.44;;;22.77;52.84
15678;BME280;7939;50.814;6.368;2022-09-09T06:31:09;99161.88;;;22.78;52.87
15678;BME280;7939;50.814;6.368;2022-09-09T06:33:37;99159.25;;;22.78;52.94
15678;BME280;7939;50.814;6.368;2022-09-09T06:36:07;99155.81;;;22.77;52.91
15678;BME280;7939;50.814;6.368;2022-09-09T06:38:36;99150.50;;;22.79;52.80
15678;BME280;7939;50.814;6.368;2022-09-09T06:41:03;99155.91;;;22.76;52.65
15678;BME280;7939;50.814;6.368;2022-09-09T06:43:32;99155.91;;;22.76;52.82
15678;BME280;7939;50.814;6.368;2022-09-09T06:46:01;99148.00;;;22.77;52.77
15678;BME280;7939;50.814;6.368;2022-09-09T06:48:28;99163.63;;;22.77;52.83
15678;BME280;7939;50.814;6.368;2022-09-09T06:51:03;99163.91;;;22.73;53.16
15678;BME280;7939;50.814;6.368;2022-09-09T06:53:30;99157.75;;;22.74;52.68
15678;BME280;7939;50.814;6.368;2022-09-09T06:55:59;99156.94;;;22.73;52.78
15678;BME280;7939;50.814;6.368;2022-09-09T06:58:26;99158.78;;;22.71;53.21
15678;BME280;7939;50.814;6.368;2022-09-09T07:01:01;99165.69;;;22.72;52.64
15678;BME280;7939;50.814;6.368;2022-09-09T07:03:28;99158.78;;;22.71;52.54
15678;BME280;7939;50.814;6.368;2022-09-09T07:05:55;99157.03;;;22.72;52.94
15678;BME280;7939;50.814;6.368;2022-09-09T07:08:22;99159.53;;;22.73;52.60
15678;BME280;7939;50.814;6.368;2022-09-09T07:10:50;99159.53;;;22.73;52.62
15678;BME280;7939;50.814;6.368;2022-09-09T07:13:16;99161.50;;;22.70;52.62
15678;BME280;7939;50.814;6.368;2022-09-09T07:15:46;99162.22;;;22.72;52.75
15678;BME280;7939;50.814;6.368;2022-09-09T07:18:14;99159.72;;;22.70;52.49
15678;BME280;7939;50.814;6.368;2022-09-09T07:20:40;99164.84;;;22.72;52.35
15678;BME280;7939;50.814;6.368;2022-09-09T07:23:07;99169.13;;;22.73;52.59
15678;BME280;7939;50.814;6.368;2022-09-09T07:25:34;99167.34;;;22.73;52.37
15678;BME280;7939;50.814;6.368;2022-09-09T07:28:00;99163.75;;;22.76;52.09
15678;BME280;7939;50.814;6.368;2022-09-09T07:30:28;99160.38;;;22.74;52.09
15678;BME280;7939;50.814;6.368;2022-09-09T07:32:55;99166.41;;;22.74;52.40
15678;BME280;7939;50.814;6.368;2022-09-09T07:35:24;99167.34;;;22.73;51.75
15678;BME280;7939;50.814;6.368;2022-09-09T07:37:51;99167.53;;;22.70;51.97
15678;BME280;7939;50.814;6.368;2022-09-09T07:40:18;99167.44;;;22.72;52.23
15678;BME280;7939;50.814;6.368;2022-09-09T07:42:46;99174.22;;;22.74;52.00
15678;BME280;7939;50.814;6.368;2022-09-09T07:45:12;99164.66;;;22.75;51.84
15678;BME280;7939;50.814;6.368;2022-09-09T07:47:39;99166.34;;;22.76;52.13
15678;BME280;7939;50.814;6.368;2022-09-09T07:50:06;99173.28;;;22.75;51.94
15678;BME280;7939;50.814;6.368;2022-09-09T07:52:36;99167.53;;;22.70;51.96
15678;BME280;7939;50.814;6.368;2022-09-09T07:55:03;99164.75;;;22.73;51.72
15678;BME280;7939;50.814;6.368;2022-09-09T07:57:30;99163.81;;;22.74;51.53
15678;BME280;7939;50.814;6.368;2022-09-09T07:59:57;99161.19;;;22.74;51.75
15678;BME280;7939;50.814;6.368;2022-09-09T08:02:24;99167.44;;;22.72;51.69
15678;BME280;7939;50.814;6.368;2022-09-09T08:04:53;99169.94;;;22.73;51.30
15678;BME280;7939;50.814;6.368;2022-09-09T08:07:19;99185.47;;;22.75;51.89
15678;BME280;7939;50.814;6.368;2022-09-09T08:09:48;99178.03;;;22.69;51.28
15678;BME280;7939;50.814;6.368;2022-09-09T08:12:14;99181.41;;;22.71;50.66
15678;BME280;7939;50.814;6.368;2022-09-09T08:14:41;99190.16;;;22.70;51.10
15678;BME280;7939;50.814;6.368;2022-09-09T08:17:08;99183.25;;;22.69;50.53
15678;BME280;7939;50.814;6.368;2022-09-09T08:19:35;99187.72;;;22.67;50.47
15678;BME280;7939;50.814;6.368;2022-09-09T08:22:02;99183.44;;;22.66;50.83
15678;BME280;7939;50.814;6.368;2022-09-09T08:24:29;99184.19;;;22.68;50.86
15678;BME280;7939;50.814;6.368;2022-09-09T08:26:56;99184.00;;;22.71;50.77
15678;BME280;7939;50.814;6.368;2022-09-09T08:29:23;99186.50;;;22.72;50.54
15678;BME280;7939;50.814;6.368;2022-09-09T08:31:51;99191.00;;;22.70;50.53
15678;BME280;7939;50.814;6.368;2022-09-09T08:34:20;99192.47;;;22.74;50.70
15678;BME280;7939;50.814;6.368;2022-09-09T08:36:48;99191.53;;;22.75;50.58
15678;BME280;7939;50.814;6.368;2022-09-09T08:39:17;99199.09;;;22.80;50.84
15678;BME280;7939;50.814;6.368;2022-09-09T08:42:08;99194.13;;;22.75;50.61
15678;BME280;7939;50.814;6.368;2022-09-09T08:44:54;99200.75;;;22.81;50.50
15678;BME280;7939;50.814;6.368;2022-09-09T08:47:34;99197.97;;;22.84;50.18
15678;BME280;7939;50.814;6.368;2022-09-09T08:50:16;99200.59;;;22.84;50.51
15678;BME280;7939;50.814;6.368;2022-09-09T08:52:52;99202.25;;;22.85;50.65
15678;BME280;7939;50.814;6.368;2022-09-09T08:55:25;99218.59;;;22.88;49.96
15678;BME280;7939;50.814;6.368;2022-09-09T08:57:56;99206.53;;;22.86;49.98
15678;BME280;7939;50.814;6.368;2022-09-09T09:00:32;99196.03;;;22.87;49.95
15678;BME280;7939;50.814;6.368;2022-09-09T09:03:06;99211.50;;;22.91;50.19
15678;BME280;7939;50.814;6.368;2022-09-09T09:05:37;99202.03;;;22.90;50.20
15678;BME280;7939;50.814;6.368;2022-09-09T09:08:17;99197.66;;;22.90;50.37
15678;BME280;7939;50.814;6.368;2022-09-09T09:10:47;99199.22;;;22.93;50.22
15678;BME280;7939;50.814;6.368;2022-09-09T09:13:18;99214.84;;;22.93;50.09
15678;BME280;7939;50.814;6.368;2022-09-09T09:15:50;99204.25;;;22.96;49.74
15678;BME280;7939;50.814;6.368;2022-09-09T09:18:18;99210.03;;;23.01;49.62
15678;BME280;7939;50.814;6.368;2022-09-09T09:20:53;99203.69;;;23.05;49.44
15678;BME280;7939;50.814;6.368;2022-09-09T09:23:25;99205.09;;;23.10;49.71
15678;BME280;7939;50.814;6.368;2022-09-09T09:25:56;99199.78;;;23.12;49.30
15678;BME280;7939;50.814;6.368;2022-09-09T09:28:28;99209.28;;;23.13;49.69
15678;BME280;7939;50.814;6.368;2022-09-09T09:30:58;99210.03;;;23.15;49.57
15678;BME280;7939;50.814;6.368;2022-09-09T09:33:28;99216.66;;;23.21;49.16
15678;BME280;7939;50.814;6.368;2022-09-09T09:35:58;99215.72;;;23.22;48.99
15678;BME280;7939;50.814;6.368;2022-09-09T09:38:27;99202.47;;;23.25;49.39
15678;BME280;7939;50.814;6.368;2022-09-09T09:40:55;99205.00;;;23.26;49.39
15678;BME280;7939;50.814;6.368;2022-09-09T09:43:26;99217.84;;;23.29;49.42
15678;BME280;7939;50.814;6.368;2022-09-09T09:45:54;99210.84;;;23.30;49.49
15678;BME280;7939;50.814;6.368;2022-09-09T09:48:23;99211.59;;;23.32;49.50
15678;BME280;7939;50.814;6.368;2022-09-09T09:50:52;99219.34;;;23.33;49.26
15678;BME280;7939;50.814;6.368;2022-09-09T09:53:23;99215.06;;;23.32;48.95
15678;BME280;7939;50.814;6.368;2022-09-09T09:55:56;99222.69;;;23.35;48.98
15678;BME280;7939;50.814;6.368;2022-09-09T09:58:26;99225.19;;;23.37;48.99
15678;BME280;7939;50.814;6.368;2022-09-09T10:00:55;99218.50;;;23.33;49.15
15678;BME280;7939;50.814;6.368;2022-09-09T10:03:24;99220.28;;;23.32;49.62
15678;BME280;7939;50.814;6.368;2022-09-09T10:05:52;99221.94;;;23.33;48.90
15678;BME280;7939;50.814;6.368;2022-09-09T10:08:20;99214.84;;;23.35;48.99
15678;BME280;7939;50.814;6.368;2022-09-09T10:10:54;99208.69;;;23.36;49.11
15678;BME280;7939;50.814;6.368;2022-09-09T10:13:29;99211.88;;;23.41;49.08
15678;BME280;7939;50.814;6.368;2022-09-09T10:16:13;99204.03;;;23.41;48.92
15678;BME280;7939;50.814;6.368;2022-09-09T10:18:58;99205.00;;;23.40;48.38
15678;BME280;7939;50.814;6.368;2022-09-09T10:21:43;99208.22;;;23.44;48.69
15678;BME280;7939;50.814;6.368;2022-09-09T10:24:37;99204.72;;;23.45;47.75
15678;BME280;7939;50.814;6.368;2022-09-09T10:27:15;99208.88;;;23.48;48.29
15678;BME280;7939;50.814;6.368;2022-09-09T10:29:59;99213.06;;;23.50;47.88
15678;BME280;7939;50.814;6.368;2022-09-09T10:32:38;99216.59;;;23.49;48.37
15678;BME280;7939;50.814;6.368;2022-09-09T10:35:12;99206.06;;;23.51;47.97
15678;BME280;7939;50.814;6.368;2022-09-09T10:37:51;99208.59;;;23.52;47.65
15678;BME280;7939;50.814;6.368;2022-09-09T10:40:27;99205.78;;;23.55;48.41
15678;BME280;7939;50.814;6.368;2022-09-09T10:43:03;99209.34;;;23.54;47.57
15678;BME280;7939;50.814;6.368;2022-09-09T10:45:43;99211.94;;;23.54;47.27
15678;BME280;7939;50.814;6.368;2022-09-09T10:48:19;99199.13;;;23.51;48.05
15678;BME280;7939;50.814;6.368;2022-09-09T10:50:55;99203.28;;;23.54;47.63
15678;BME280;7939;50.814;6.368;2022-09-09T10:53:35;99197.13;;;23.55;47.71
15678;BME280;7939;50.814;6.368;2022-09-09T10:56:06;99195.25;;;23.57;47.88
15678;BME280;7939;50.814;6.368;2022-09-09T10:58:39;99202.84;;;23.61;48.14
15678;BME280;7939;50.814;6.368;2022-09-09T11:01:15;99192.28;;;23.63;47.96
15678;BME280;7939;50.814;6.368;2022-09-09T11:03:46;99193.31;;;23.60;48.49
15678;BME280;7939;50.814;6.368;2022-09-09T11:06:18;99194.34;;;23.58;47.61
15678;BME280;7939;50.814;6.368;2022-09-09T11:08:45;99210.66;;;23.61;47.84
15678;BME280;7939;50.814;6.368;2022-09-09T11:11:19;99205.63;;;23.58;47.78
15678;BME280;7939;50.814;6.368;2022-09-09T11:13:53;99198.72;;;23.57;47.54
15678;BME280;7939;50.814;6.368;2022-09-09T11:16:28;99206.63;;;23.56;47.58
15678;BME280;7939;50.814;6.368;2022-09-09T11:19:00;99197.78;;;23.58;47.58
15678;BME280;7939;50.814;6.368;2022-09-09T11:21:30;99203.66;;;23.62;47.69
15678;BME280;7939;50.814;6.368;2022-09-09T11:24:03;99201.00;;;23.63;47.64
15678;BME280;7939;50.814;6.368;2022-09-09T11:26:38;99199.34;;;23.61;48.10
15678;BME280;7939;50.814;6.368;2022-09-09T11:32:39;99202.66;;;23.64;47.89
15678;BME280;7939;50.814;6.368;2022-09-09T11:35:25;99193.22;;;23.62;48.44
15678;BME280;7939;50.814;6.368;2022-09-09T11:38:12;99197.34;;;23.66;48.29
15678;BME280;7939;50.814;6.368;2022-09-09T11:40:41;99197.44;;;23.64;48.24
15678;BME280;7939;50.814;6.368;2022-09-09T11:43:10;99198.06;;;23.68;48.47
15678;BME280;7939;50.814;6.368;2022-09-09T11:45:39;99209.34;;;23.68;48.15
15678;BME280;7939;50.814;6.368;2022-09-09T11:48:23;99221.44;;;23.69;48.11
15678;BME280;7939;50.814;6.368;2022-09-09T11:50:57;99244.09;;;23.69;48.19
15678;BME280;7939;50.814;6.368;2022-09-09T11:53:24;99249.63;;;23.64;49.08
15678;BME280;7939;50.814;6.368;2022-09-09T11:56:03;99246.31;;;23.61;50.07
15678;BME280;7939;50.814;6.368;2022-09-09T11:58:35;99244.75;;;23.58;50.87
15678;BME280;7939;50.814;6.368;2022-09-09T12:01:13;99240.53;;;23.56;50.73
15678;BME280;7939;50.814;6.368;2022-09-09T12:03:45;99237.19;;;23.54;51.33
15678;BME280;7939;50.814;6.368;2022-09-09T12:06:16;99237.31;;;23.52;51.62
15678;BME280;7939;50.814;6.368;2022-09-09T12:08:48;99236.34;;;23.53;52.28
15678;BME280;7939;50.814;6.368;2022-09-09T12:11:25;99231.03;;;23.55;52.08
15678;BME280;7939;50.814;6.368;2022-09-09T12:13:54;99227.41;;;23.57;52.03
15678;BME280;7939;50.814;6.368;2022-09-09T12:16:31;99230.75;;;23.59;52.58
15678;BME280;7939;50.814;6.368;2022-09-09T12:19:14;99217.63;;;23.61;52.72
15678;BME280;7939;50.814;6.368;2022-09-09T12:21:45;99218.56;;;23.60;52.76
15678;BME280;7939;50.814;6.368;2022-09-09T12:24:19;99224.38;;;23.65;52.66
15678;BME280;7939;50.814;6.368;2022-09-09T12:26:55;99218.19;;;23.66;52.66
15678;BME280;7939;50.814;6.368;2022-09-09T12:29:28;99216.53;;;23.65;52.66
15678;BME280;7939;50.814;6.368;2022-09-09T12:32:03;99215.69;;;23.64;52.57
15678;BME280;7939;50.814;6.368;2022-09-09T12:34:38;99220.91;;;23.64;52.45
15678;BME280;7939;50.814;6.368;2022-09-09T12:37:12;99222.59;;;23.65;52.16
15678;BME280;7939;50.814;6.368;2022-09-09T12:39:45;99220.91;;;23.64;52.22
15678;BME280;7939;50.814;6.368;2022-09-09T12:42:16;99205.06;;;23.67;51.88
15678;BME280;7939;50.814;6.368;2022-09-09T12:44:51;99207.88;;;23.64;51.49
15678;BME280;7939;50.814;6.368;2022-09-09T12:47:18;99204.31;;;23.65;51.94
15678;BME280;7939;50.814;6.368;2022-09-09T12:49:48;99212.78;;;23.69;51.97
15678;BME280;7939;50.814;6.368;2022-09-09T12:52:19;99199.84;;;23.67;51.86
15678;BME280;7939;50.814;6.368;2022-09-09T12:54:48;99195.34;;;23.69;51.75
15678;BME280;7939;50.814;6.368;2022-09-09T12:57:17;99201.22;;;23.73;51.91
15678;BME280;7939;50.814;6.368;2022-09-09T12:59:44;99191.50;;;23.75;51.51
15678;BME280;7939;50.814;6.368;2022-09-09T13:02:22;99196.72;;;23.75;51.62
15678;BME280;7939;50.814;6.368;2022-09-09T13:04:51;99192.56;;;23.73;51.34
15678;BME280;7939;50.814;6.368;2022-09-09T13:07:20;99188.06;;;23.75;51.24
15678;BME280;7939;50.814;6.368;2022-09-09T13:09:50;99196.56;;;23.78;50.85
15678;BME280;7939;50.814;6.368;2022-09-09T13:12:20;99188.63;;;23.80;50.97
15678;BME280;7939;50.814;6.368;2022-09-09T13:14:50;99186.75;;;23.82;50.17
15678;BME280;7939;50.814;6.368;2022-09-09T13:17:21;99181.75;;;23.79;50.81
15678;BME280;7939;50.814;6.368;2022-09-09T13:19:51;99178.19;;;23.80;50.64
15678;BME280;7939;50.814;6.368;2022-09-09T13:22:21;99178.28;;;23.78;50.29
15678;BME280;7939;50.814;6.368;2022-09-09T13:24:59;99178.19;;;23.80;49.89
15678;BME280;7939;50.814;6.368;2022-09-09T13:27:35;99169.41;;;23.81;50.35
15678;BME280;7939;50.814;6.368;2022-09-09T13:30:21;99170.25;;;23.81;50.07
15678;BME280;7939;50.814;6.368;2022-09-09T13:33:20;99170.25;;;23.81;49.87